sensor_id;sensor_type;location;lat;lon;timestamp;P1;durP1;ratioP1;P2;durP2;ratioP2
62056;SDS011;48016;50.284;18.860;2022-08-01T00:02:20;11.13;;;6.85;;
62056;SDS011;48016;50.284;18.860;2022-08-01T00:04:47;8.03;;;6.80;;
62056;SDS011;48016;50.284;18.860;2022-08-01T00:07:14;8.45;;;6.43;;
62056;SDS011;48016;50.284;18.860;2022-08-01T00:09:41;8.93;;;7.43;;
62056;SDS011;48016;50.284;18.860;2022-08-01T00:12:08;8.43;;;6.60;;
62056;SDS011;48016;50.284;18.860;2022-08-01T00:14:35;8.63;;;6.73;;
62056;SDS011;48016;50.284;18.860;2022-08-01T00:19:30;8.78;;;6.40;;
62056;SDS011;48016;50.284;18.860;2022-08-01T00:21:57;7.88;;;6.25;;
62056;SDS011;48016;50.284;18.860;2022-08-01T00:24:25;9.03;;;6.43;;
62056;SDS011;48016;50.284;18.860;2022-08-01T00:26:52;8.50;;;6.70;;
62056;SDS011;48016;50.284;18.860;2022-08-01T00:29:19;9.33;;;6.48;;
62056;SDS011;48016;50.284;18.860;2022-08-01T00:31:46;8.85;;;6.93;;
62056;SDS011;48016;50.284;18.860;2022-08-01T00:34:13;9.20;;;6.25;;
62056;SDS011;48016;50.284;18.860;2022-08-01T00:36:40;9.53;;;6.60;;
62056;SDS011;48016;50.284;18.860;2022-08-01T00:39:07;9.48;;;6.50;;
62056;SDS011;48016;50.284;18.860;2022-08-01T00:41:34;8.80;;;5.93;;
62056;SDS011;48016;50.284;18.860;2022-08-01T00:44:03;8.98;;;6.35;;
62056;SDS011;48016;50.284;18.860;2022-08-01T00:46:33;8.88;;;6.00;;
62056;SDS011;48016;50.284;18.860;2022-08-01T00:49:01;10.63;;;6.70;;
62056;SDS011;48016;50.284;18.860;2022-08-01T00:51:29;6.95;;;5.90;;
62056;SDS011;48016;50.284;18.860;2022-08-01T00:53:57;8.50;;;5.83;;
62056;SDS011;48016;50.284;18.860;2022-08-01T00:56:25;8.43;;;6.40;;
62056;SDS011;48016;50.284;18.860;2022-08-01T00:58:53;11.25;;;6.18;;
62056;SDS011;48016;50.284;18.860;2022-08-01T01:01:22;9.98;;;5.90;;
62056;SDS011;48016;50.284;18.860;2022-08-01T01:03:49;7.75;;;6.08;;
62056;SDS011;48016;50.284;18.860;2022-08-01T01:11:32;6.48;;;5.78;;
62056;SDS011;48016;50.284;18.860;2022-08-01T01:14:10;7.33;;;5.63;;
62056;SDS011;48016;50.284;18.860;2022-08-01T01:16:48;8.45;;;5.48;;
62056;SDS011;48016;50.284;18.860;2022-08-01T01:19:17;7.73;;;5.98;;
62056;SDS011;48016;50.284;18.860;2022-08-01T01:27:28;7.63;;;5.83;;
62056;SDS011;48016;50.284;18.860;2022-08-01T01:30:00;7.63;;;6.50;;
62056;SDS011;48016;50.284;18.860;2022-08-01T01:32:30;7.33;;;5.63;;
62056;SDS011;48016;50.284;18.860;2022-08-01T01:35:03;8.50;;;6.55;;
62056;SDS011;48016;50.284;18.860;2022-08-01T01:37:34;9.43;;;6.55;;
62056;SDS011;48016;50.284;18.860;2022-08-01T01:40:05;9.68;;;6.48;;
62056;SDS011;48016;50.284;18.860;2022-08-01T01:42:34;9.67;;;6.50;;
62056;SDS011;48016;50.284;18.860;2022-08-01T01:45:03;8.80;;;6.80;;
62056;SDS011;48016;50.284;18.860;2022-08-01T01:47:32;8.08;;;6.18;;
62056;SDS011;48016;50.284;18.860;2022-08-01T01:50:00;7.58;;;6.10;;
62056;SDS011;48016;50.284;18.860;2022-08-01T01:52:30;6.83;;;5.95;;
62056;SDS011;48016;50.284;18.860;2022-08-01T01:54:58;8.60;;;6.25;;
62056;SDS011;48016;50.284;18.860;2022-08-01T01:57:26;9.38;;;6.73;;
62056;SDS011;48016;50.284;18.860;2022-08-01T01:59:57;9.48;;;6.68;;
62056;SDS011;48016;50.284;18.860;2022-08-01T02:02:25;8.30;;;6.88;;
62056;SDS011;48016;50.284;18.860;2022-08-01T02:04:54;7.98;;;6.65;;
62056;SDS011;48016;50.284;18.860;2022-08-01T02:07:24;9.83;;;6.70;;
62056;SDS011;48016;50.284;18.860;2022-08-01T02:09:52;9.08;;;6.80;;
62056;SDS011;48016;50.284;18.860;2022-08-01T02:12:23;9.30;;;6.75;;
62056;SDS011;48016;50.284;18.860;2022-08-01T02:14:51;10.10;;;7.50;;
62056;SDS011;48016;50.284;18.860;2022-08-01T02:17:20;10.60;;;7.93;;
62056;SDS011;48016;50.284;18.860;2022-08-01T02:19:50;9.80;;;7.63;;
62056;SDS011;48016;50.284;18.860;2022-08-01T02:22:24;11.95;;;7.63;;
62056;SDS011;48016;50.284;18.860;2022-08-01T02:28:05;11.35;;;8.28;;
62056;SDS011;48016;50.284;18.860;2022-08-01T02:30:36;14.45;;;10.15;;
62056;SDS011;48016;50.284;18.860;2022-08-01T02:33:07;13.95;;;10.65;;
62056;SDS011;48016;50.284;18.860;2022-08-01T02:35:40;14.08;;;10.78;;
62056;SDS011;48016;50.284;18.860;2022-08-01T02:38:10;17.73;;;10.63;;
62056;SDS011;48016;50.284;18.860;2022-08-01T02:40:41;14.87;;;10.07;;
62056;SDS011;48016;50.284;18.860;2022-08-01T02:43:12;11.93;;;9.83;;
62056;SDS011;48016;50.284;18.860;2022-08-01T02:45:47;13.03;;;10.20;;
62056;SDS011;48016;50.284;18.860;2022-08-01T02:48:18;12.73;;;10.20;;
62056;SDS011;48016;50.284;18.860;2022-08-01T02:50:48;13.38;;;10.10;;
62056;SDS011;48016;50.284;18.860;2022-08-01T02:53:18;14.70;;;9.93;;
62056;SDS011;48016;50.284;18.860;2022-08-01T02:55:47;14.95;;;10.63;;
62056;SDS011;48016;50.284;18.860;2022-08-01T02:58:16;12.35;;;10.10;;
62056;SDS011;48016;50.284;18.860;2022-08-01T03:00:46;14.38;;;10.45;;
62056;SDS011;48016;50.284;18.860;2022-08-01T03:03:14;11.63;;;9.30;;
62056;SDS011;48016;50.284;18.860;2022-08-01T03:05:43;11.60;;;9.90;;
62056;SDS011;48016;50.284;18.860;2022-08-01T03:08:15;13.00;;;10.40;;
62056;SDS011;48016;50.284;18.860;2022-08-01T03:10:44;12.23;;;10.93;;
62056;SDS011;48016;50.284;18.860;2022-08-01T03:13:14;16.25;;;10.03;;
62056;SDS011;48016;50.284;18.860;2022-08-01T03:15:43;18.05;;;10.43;;
62056;SDS011;48016;50.284;18.860;2022-08-01T03:18:12;12.80;;;9.93;;
62056;SDS011;48016;50.284;18.860;2022-08-01T03:20:41;12.33;;;10.08;;
62056;SDS011;48016;50.284;18.860;2022-08-01T03:23:11;14.60;;;10.83;;
62056;SDS011;48016;50.284;18.860;2022-08-01T03:25:39;13.18;;;10.18;;
62056;SDS011;48016;50.284;18.860;2022-08-01T03:28:09;12.60;;;10.53;;
62056;SDS011;48016;50.284;18.860;2022-08-01T03:30:39;13.73;;;10.98;;
62056;SDS011;48016;50.284;18.860;2022-08-01T03:33:08;14.15;;;10.90;;
62056;SDS011;48016;50.284;18.860;2022-08-01T03:35:37;13.13;;;10.83;;
62056;SDS011;48016;50.284;18.860;2022-08-01T03:38:09;12.87;;;11.10;;
62056;SDS011;48016;50.284;18.860;2022-08-01T03:40:41;17.83;;;11.30;;
62056;SDS011;48016;50.284;18.860;2022-08-01T03:43:36;14.55;;;10.98;;
62056;SDS011;48016;50.284;18.860;2022-08-01T03:46:10;12.73;;;9.47;;
62056;SDS011;48016;50.284;18.860;2022-08-01T03:48:40;14.05;;;10.20;;
62056;SDS011;48016;50.284;18.860;2022-08-01T03:51:15;14.13;;;11.35;;
62056;SDS011;48016;50.284;18.860;2022-08-01T03:53:43;14.97;;;11.33;;
62056;SDS011;48016;50.284;18.860;2022-08-01T03:56:12;15.83;;;11.88;;
62056;SDS011;48016;50.284;18.860;2022-08-01T03:58:45;15.03;;;10.88;;
62056;SDS011;48016;50.284;18.860;2022-08-01T04:01:13;15.13;;;10.33;;
62056;SDS011;48016;50.284;18.860;2022-08-01T04:03:42;15.98;;;11.60;;
62056;SDS011;48016;50.284;18.860;2022-08-01T04:06:10;14.10;;;11.40;;
62056;SDS011;48016;50.284;18.860;2022-08-01T04:08:40;15.33;;;11.55;;
62056;SDS011;48016;50.284;18.860;2022-08-01T04:11:08;13.40;;;11.85;;
62056;SDS011;48016;50.284;18.860;2022-08-01T04:13:36;14.43;;;12.50;;
62056;SDS011;48016;50.284;18.860;2022-08-01T04:18:31;12.95;;;11.03;;
62056;SDS011;48016;50.284;18.860;2022-08-01T04:21:00;13.35;;;11.68;;
62056;SDS011;48016;50.284;18.860;2022-08-01T04:23:27;15.77;;;11.70;;
62056;SDS011;48016;50.284;18.860;2022-08-01T04:25:59;12.63;;;10.73;;
62056;SDS011;48016;50.284;18.860;2022-08-01T04:28:31;12.80;;;11.23;;
62056;SDS011;48016;50.284;18.860;2022-08-01T04:31:02;14.53;;;11.68;;
62056;SDS011;48016;50.284;18.860;2022-08-01T04:33:32;14.68;;;11.30;;
62056;SDS011;48016;50.284;18.860;2022-08-01T04:36:03;14.83;;;11.37;;
62056;SDS011;48016;50.284;18.860;2022-08-01T04:38:33;14.43;;;11.20;;
62056;SDS011;48016;50.284;18.860;2022-08-01T04:41:03;16.60;;;11.93;;
62056;SDS011;48016;50.284;18.860;2022-08-01T04:43:33;15.08;;;11.15;;
62056;SDS011;48016;50.284;18.860;2022-08-01T04:46:00;14.45;;;11.45;;
62056;SDS011;48016;50.284;18.860;2022-08-01T04:48:31;13.27;;;10.40;;
62056;SDS011;48016;50.284;18.860;2022-08-01T04:51:00;11.60;;;10.40;;
62056;SDS011;48016;50.284;18.860;2022-08-01T04:53:27;13.55;;;11.55;;
62056;SDS011;48016;50.284;18.860;2022-08-01T04:55:54;14.43;;;10.83;;
62056;SDS011;48016;50.284;18.860;2022-08-01T04:58:22;12.47;;;10.73;;
62056;SDS011;48016;50.284;18.860;2022-08-01T05:00:49;13.48;;;9.55;;
62056;SDS011;48016;50.284;18.860;2022-08-01T05:10:37;9.68;;;8.05;;
62056;SDS011;48016;50.284;18.860;2022-08-01T05:13:04;12.55;;;7.93;;
62056;SDS011;48016;50.284;18.860;2022-08-01T05:15:34;11.40;;;8.25;;
62056;SDS011;48016;50.284;18.860;2022-08-01T05:18:03;10.55;;;9.30;;
62056;SDS011;48016;50.284;18.860;2022-08-01T05:20:31;13.00;;;10.75;;
62056;SDS011;48016;50.284;18.860;2022-08-01T05:22:58;15.83;;;11.40;;
62056;SDS011;48016;50.284;18.860;2022-08-01T05:25:25;11.63;;;9.05;;
62056;SDS011;48016;50.284;18.860;2022-08-01T05:30:19;10.13;;;8.30;;
62056;SDS011;48016;50.284;18.860;2022-08-01T05:32:46;13.45;;;12.03;;
62056;SDS011;48016;50.284;18.860;2022-08-01T05:40:07;15.20;;;11.53;;
62056;SDS011;48016;50.284;18.860;2022-08-01T05:42:35;12.77;;;9.47;;
62056;SDS011;48016;50.284;18.860;2022-08-01T05:47:29;9.40;;;6.50;;
62056;SDS011;48016;50.284;18.860;2022-08-01T05:57:17;10.65;;;6.50;;
62056;SDS011;48016;50.284;18.860;2022-08-01T06:02:11;8.80;;;6.08;;
62056;SDS011;48016;50.284;18.860;2022-08-01T06:07:05;10.43;;;6.28;;
62056;SDS011;48016;50.284;18.860;2022-08-01T06:11:59;8.83;;;6.08;;
62056;SDS011;48016;50.284;18.860;2022-08-01T06:14:26;9.27;;;6.47;;
62056;SDS011;48016;50.284;18.860;2022-08-01T06:16:53;9.17;;;6.30;;
62056;SDS011;48016;50.284;18.860;2022-08-01T06:19:20;8.95;;;5.90;;
62056;SDS011;48016;50.284;18.860;2022-08-01T06:21:47;11.68;;;6.13;;
62056;SDS011;48016;50.284;18.860;2022-08-01T06:24:14;10.58;;;6.08;;
62056;SDS011;48016;50.284;18.860;2022-08-01T06:26:41;10.28;;;6.43;;
62056;SDS011;48016;50.284;18.860;2022-08-01T06:29:08;8.23;;;5.78;;
62056;SDS011;48016;50.284;18.860;2022-08-01T06:31:36;8.70;;;5.78;;
62056;SDS011;48016;50.284;18.860;2022-08-01T06:34:03;7.53;;;5.38;;
62056;SDS011;48016;50.284;18.860;2022-08-01T06:36:30;8.45;;;4.98;;
62056;SDS011;48016;50.284;18.860;2022-08-01T06:38:57;8.13;;;5.60;;
62056;SDS011;48016;50.284;18.860;2022-08-01T06:41:24;7.93;;;5.93;;
62056;SDS011;48016;50.284;18.860;2022-08-01T06:43:51;7.30;;;5.68;;
62056;SDS011;48016;50.284;18.860;2022-08-01T06:46:19;7.93;;;4.88;;
62056;SDS011;48016;50.284;18.860;2022-08-01T06:48:46;6.30;;;5.53;;
62056;SDS011;48016;50.284;18.860;2022-08-01T06:51:13;6.35;;;5.25;;
62056;SDS011;48016;50.284;18.860;2022-08-01T06:53:43;8.53;;;4.73;;
62056;SDS011;48016;50.284;18.860;2022-08-01T06:56:10;7.30;;;5.08;;
62056;SDS011;48016;50.284;18.860;2022-08-01T06:58:38;9.10;;;4.73;;
62056;SDS011;48016;50.284;18.860;2022-08-01T07:01:05;6.45;;;4.65;;
62056;SDS011;48016;50.284;18.860;2022-08-01T07:03:34;9.73;;;5.27;;
62056;SDS011;48016;50.284;18.860;2022-08-01T07:06:01;6.03;;;4.70;;
62056;SDS011;48016;50.284;18.860;2022-08-01T07:08:29;7.38;;;4.60;;
62056;SDS011;48016;50.284;18.860;2022-08-01T07:10:56;8.50;;;4.33;;
62056;SDS011;48016;50.284;18.860;2022-08-01T07:13:26;8.33;;;4.68;;
62056;SDS011;48016;50.284;18.860;2022-08-01T07:15:53;6.58;;;4.03;;
62056;SDS011;48016;50.284;18.860;2022-08-01T07:18:20;6.50;;;4.23;;
62056;SDS011;48016;50.284;18.860;2022-08-01T07:20:48;6.03;;;3.93;;
62056;SDS011;48016;50.284;18.860;2022-08-01T07:23:16;5.55;;;4.75;;
62056;SDS011;48016;50.284;18.860;2022-08-01T07:25:43;6.80;;;4.20;;
62056;SDS011;48016;50.284;18.860;2022-08-01T07:28:10;5.98;;;3.80;;
62056;SDS011;48016;50.284;18.860;2022-08-01T07:30:38;4.78;;;3.83;;
62056;SDS011;48016;50.284;18.860;2022-08-01T07:33:05;4.48;;;3.13;;
62056;SDS011;48016;50.284;18.860;2022-08-01T07:35:32;6.00;;;3.27;;
62056;SDS011;48016;50.284;18.860;2022-08-01T07:37:59;5.58;;;3.45;;
62056;SDS011;48016;50.284;18.860;2022-08-01T07:40:26;5.88;;;3.48;;
62056;SDS011;48016;50.284;18.860;2022-08-01T07:42:53;6.25;;;3.30;;
62056;SDS011;48016;50.284;18.860;2022-08-01T07:45:20;4.73;;;3.18;;
62056;SDS011;48016;50.284;18.860;2022-08-01T07:47:48;4.85;;;3.23;;
62056;SDS011;48016;50.284;18.860;2022-08-01T07:50:16;5.05;;;3.30;;
62056;SDS011;48016;50.284;18.860;2022-08-01T07:52:43;5.85;;;3.60;;
62056;SDS011;48016;50.284;18.860;2022-08-01T07:55:11;7.98;;;4.08;;
62056;SDS011;48016;50.284;18.860;2022-08-01T07:57:38;6.43;;;3.63;;
62056;SDS011;48016;50.284;18.860;2022-08-01T08:00:06;5.40;;;3.80;;
62056;SDS011;48016;50.284;18.860;2022-08-01T08:02:35;7.85;;;3.70;;
62056;SDS011;48016;50.284;18.860;2022-08-01T08:05:02;6.30;;;4.17;;
62056;SDS011;48016;50.284;18.860;2022-08-01T08:07:31;7.78;;;4.45;;
62056;SDS011;48016;50.284;18.860;2022-08-01T08:09:58;8.17;;;4.27;;
62056;SDS011;48016;50.284;18.860;2022-08-01T08:12:25;7.68;;;4.90;;
62056;SDS011;48016;50.284;18.860;2022-08-01T08:14:53;7.43;;;4.48;;
62056;SDS011;48016;50.284;18.860;2022-08-01T08:17:20;8.85;;;4.43;;
62056;SDS011;48016;50.284;18.860;2022-08-01T08:19:47;7.70;;;4.97;;
62056;SDS011;48016;50.284;18.860;2022-08-01T08:22:14;8.50;;;4.78;;
62056;SDS011;48016;50.284;18.860;2022-08-01T08:24:41;7.83;;;4.90;;
62056;SDS011;48016;50.284;18.860;2022-08-01T08:27:09;5.28;;;4.60;;
62056;SDS011;48016;50.284;18.860;2022-08-01T08:29:37;6.63;;;4.80;;
62056;SDS011;48016;50.284;18.860;2022-08-01T08:32:04;5.03;;;4.23;;
62056;SDS011;48016;50.284;18.860;2022-08-01T08:34:31;7.00;;;4.63;;
62056;SDS011;48016;50.284;18.860;2022-08-01T08:36:59;5.70;;;4.23;;
62056;SDS011;48016;50.284;18.860;2022-08-01T08:39:26;8.00;;;4.68;;
62056;SDS011;48016;50.284;18.860;2022-08-01T08:41:56;5.90;;;3.90;;
62056;SDS011;48016;50.284;18.860;2022-08-01T08:44:26;5.73;;;3.75;;
62056;SDS011;48016;50.284;18.860;2022-08-01T08:46:53;5.73;;;3.93;;
62056;SDS011;48016;50.284;18.860;2022-08-01T08:49:23;5.33;;;3.63;;
62056;SDS011;48016;50.284;18.860;2022-08-01T08:51:52;6.28;;;4.60;;
62056;SDS011;48016;50.284;18.860;2022-08-01T08:54:24;4.75;;;3.90;;
62056;SDS011;48016;50.284;18.860;2022-08-01T08:56:53;6.17;;;4.00;;
62056;SDS011;48016;50.284;18.860;2022-08-01T08:59:21;6.50;;;3.75;;
62056;SDS011;48016;50.284;18.860;2022-08-01T09:01:51;5.03;;;3.83;;
62056;SDS011;48016;50.284;18.860;2022-08-01T09:04:20;8.17;;;4.50;;
62056;SDS011;48016;50.284;18.860;2022-08-01T09:06:51;5.13;;;3.93;;
62056;SDS011;48016;50.284;18.860;2022-08-01T09:09:19;6.35;;;4.15;;
62056;SDS011;48016;50.284;18.860;2022-08-01T09:11:46;4.98;;;4.13;;
62056;SDS011;48016;50.284;18.860;2022-08-01T09:14:15;4.88;;;4.00;;
62056;SDS011;48016;50.284;18.860;2022-08-01T09:17:08;4.83;;;3.77;;
62056;SDS011;48016;50.284;18.860;2022-08-01T09:19:39;5.80;;;4.00;;
62056;SDS011;48016;50.284;18.860;2022-08-01T09:22:09;5.68;;;3.60;;
62056;SDS011;48016;50.284;18.860;2022-08-01T09:27:44;7.03;;;3.70;;
62056;SDS011;48016;50.284;18.860;2022-08-01T09:30:13;5.78;;;4.05;;
62056;SDS011;48016;50.284;18.860;2022-08-01T09:32:55;6.88;;;4.15;;
62056;SDS011;48016;50.284;18.860;2022-08-01T09:35:24;5.65;;;3.80;;
62056;SDS011;48016;50.284;18.860;2022-08-01T09:38:20;6.73;;;4.00;;
62056;SDS011;48016;50.284;18.860;2022-08-01T09:40:56;5.90;;;4.30;;
62056;SDS011;48016;50.284;18.860;2022-08-01T09:43:25;5.65;;;4.25;;
62056;SDS011;48016;50.284;18.860;2022-08-01T09:45:54;5.00;;;4.20;;
62056;SDS011;48016;50.284;18.860;2022-08-01T09:48:22;7.08;;;4.83;;
62056;SDS011;48016;50.284;18.860;2022-08-01T09:50:50;7.40;;;4.80;;
62056;SDS011;48016;50.284;18.860;2022-08-01T09:53:19;5.40;;;4.85;;
62056;SDS011;48016;50.284;18.860;2022-08-01T09:55:46;6.25;;;4.38;;
62056;SDS011;48016;50.284;18.860;2022-08-01T09:58:13;6.50;;;4.63;;
62056;SDS011;48016;50.284;18.860;2022-08-01T10:00:40;6.63;;;4.83;;
62056;SDS011;48016;50.284;18.860;2022-08-01T10:03:21;5.83;;;5.20;;
62056;SDS011;48016;50.284;18.860;2022-08-01T10:05:49;6.90;;;5.23;;
62056;SDS011;48016;50.284;18.860;2022-08-01T10:08:17;6.07;;;5.07;;
62056;SDS011;48016;50.284;18.860;2022-08-01T10:13:33;8.37;;;5.33;;
62056;SDS011;48016;50.284;18.860;2022-08-01T10:16:00;6.93;;;5.45;;
62056;SDS011;48016;50.284;18.860;2022-08-01T10:18:29;5.95;;;5.35;;
62056;SDS011;48016;50.284;18.860;2022-08-01T10:20:59;5.98;;;5.00;;
62056;SDS011;48016;50.284;18.860;2022-08-01T10:23:27;7.20;;;5.55;;
62056;SDS011;48016;50.284;18.860;2022-08-01T10:26:00;7.20;;;5.30;;
62056;SDS011;48016;50.284;18.860;2022-08-01T10:28:30;6.28;;;5.50;;
62056;SDS011;48016;50.284;18.860;2022-08-01T10:30:58;8.40;;;6.18;;
62056;SDS011;48016;50.284;18.860;2022-08-01T10:33:26;6.13;;;5.53;;
62056;SDS011;48016;50.284;18.860;2022-08-01T10:35:55;7.50;;;6.15;;
62056;SDS011;48016;50.284;18.860;2022-08-01T10:38:23;7.30;;;5.83;;
62056;SDS011;48016;50.284;18.860;2022-08-01T10:40:50;6.50;;;5.80;;
62056;SDS011;48016;50.284;18.860;2022-08-01T10:43:20;6.47;;;5.87;;
62056;SDS011;48016;50.284;18.860;2022-08-01T10:45:47;7.88;;;5.98;;
62056;SDS011;48016;50.284;18.860;2022-08-01T10:51:03;7.28;;;6.48;;
62056;SDS011;48016;50.284;18.860;2022-08-01T10:53:31;6.98;;;6.23;;
62056;SDS011;48016;50.284;18.860;2022-08-01T10:56:00;7.30;;;6.33;;
62056;SDS011;48016;50.284;18.860;2022-08-01T10:58:38;8.48;;;6.70;;
62056;SDS011;48016;50.284;18.860;2022-08-01T11:01:29;6.75;;;5.98;;
62056;SDS011;48016;50.284;18.860;2022-08-01T11:06:41;7.25;;;6.55;;
62056;SDS011;48016;50.284;18.860;2022-08-01T11:14:23;7.60;;;6.10;;
62056;SDS011;48016;50.284;18.860;2022-08-01T11:16:51;8.10;;;6.80;;
62056;SDS011;48016;50.284;18.860;2022-08-01T11:19:18;8.48;;;6.70;;
62056;SDS011;48016;50.284;18.860;2022-08-01T11:27:28;8.73;;;6.40;;
62056;SDS011;48016;50.284;18.860;2022-08-01T11:32:53;10.65;;;7.10;;
62056;SDS011;48016;50.284;18.860;2022-08-01T11:35:22;8.03;;;7.10;;
62056;SDS011;48016;50.284;18.860;2022-08-01T11:37:53;7.53;;;6.68;;
62056;SDS011;48016;50.284;18.860;2022-08-01T11:40:27;8.33;;;6.60;;
62056;SDS011;48016;50.284;18.860;2022-08-01T11:45:46;8.25;;;6.78;;
62056;SDS011;48016;50.284;18.860;2022-08-01T11:48:17;7.93;;;6.57;;
62056;SDS011;48016;50.284;18.860;2022-08-01T11:50:46;7.85;;;5.98;;
62056;SDS011;48016;50.284;18.860;2022-08-01T11:53:13;7.78;;;5.83;;
62056;SDS011;48016;50.284;18.860;2022-08-01T11:55:49;8.15;;;6.30;;
62056;SDS011;48016;50.284;18.860;2022-08-01T11:58:24;7.18;;;6.28;;
62056;SDS011;48016;50.284;18.860;2022-08-01T12:00:53;8.88;;;6.35;;
62056;SDS011;48016;50.284;18.860;2022-08-01T12:03:25;8.60;;;6.08;;
62056;SDS011;48016;50.284;18.860;2022-08-01T12:05:55;6.78;;;5.90;;
62056;SDS011;48016;50.284;18.860;2022-08-01T12:08:32;6.08;;;5.48;;
62056;SDS011;48016;50.284;18.860;2022-08-01T12:11:01;8.30;;;6.13;;
62056;SDS011;48016;50.284;18.860;2022-08-01T12:13:40;7.13;;;6.15;;
62056;SDS011;48016;50.284;18.860;2022-08-01T12:16:09;7.55;;;6.30;;
62056;SDS011;48016;50.284;18.860;2022-08-01T12:18:38;7.68;;;6.10;;
62056;SDS011;48016;50.284;18.860;2022-08-01T12:21:07;8.90;;;5.98;;
62056;SDS011;48016;50.284;18.860;2022-08-01T12:23:34;7.03;;;5.20;;
62056;SDS011;48016;50.284;18.860;2022-08-01T12:26:01;5.90;;;5.08;;
62056;SDS011;48016;50.284;18.860;2022-08-01T12:28:30;7.80;;;5.50;;
62056;SDS011;48016;50.284;18.860;2022-08-01T12:31:05;6.30;;;5.55;;
62056;SDS011;48016;50.284;18.860;2022-08-01T12:33:32;7.18;;;5.83;;
62056;SDS011;48016;50.284;18.860;2022-08-01T12:36:00;7.88;;;5.50;;
62056;SDS011;48016;50.284;18.860;2022-08-01T12:38:27;8.75;;;5.25;;
62056;SDS011;48016;50.284;18.860;2022-08-01T12:40:56;8.30;;;5.90;;
62056;SDS011;48016;50.284;18.860;2022-08-01T12:43:23;6.05;;;5.45;;
62056;SDS011;48016;50.284;18.860;2022-08-01T12:45:53;6.73;;;5.15;;
62056;SDS011;48016;50.284;18.860;2022-08-01T12:48:21;7.53;;;5.10;;
62056;SDS011;48016;50.284;18.860;2022-08-01T12:50:48;6.03;;;5.08;;
62056;SDS011;48016;50.284;18.860;2022-08-01T12:53:16;5.68;;;5.18;;
62056;SDS011;48016;50.284;18.860;2022-08-01T12:55:48;5.28;;;4.68;;
62056;SDS011;48016;50.284;18.860;2022-08-01T12:58:17;6.60;;;4.85;;
62056;SDS011;48016;50.284;18.860;2022-08-01T13:00:46;6.15;;;5.28;;
62056;SDS011;48016;50.284;18.860;2022-08-01T13:03:15;6.05;;;4.88;;
62056;SDS011;48016;50.284;18.860;2022-08-01T13:08:15;6.88;;;4.95;;
62056;SDS011;48016;50.284;18.860;2022-08-01T13:10:44;6.40;;;5.20;;
62056;SDS011;48016;50.284;18.860;2022-08-01T13:13:12;6.28;;;4.65;;
62056;SDS011;48016;50.284;18.860;2022-08-01T13:15:41;6.53;;;5.20;;
62056;SDS011;48016;50.284;18.860;2022-08-01T13:18:22;5.87;;;5.23;;
62056;SDS011;48016;50.284;18.860;2022-08-01T13:24:03;6.70;;;5.13;;
62056;SDS011;48016;50.284;18.860;2022-08-01T13:26:44;7.63;;;5.10;;
62056;SDS011;48016;50.284;18.860;2022-08-01T13:29:20;6.55;;;5.63;;
62056;SDS011;48016;50.284;18.860;2022-08-01T13:31:49;6.50;;;5.60;;
62056;SDS011;48016;50.284;18.860;2022-08-01T13:34:16;5.67;;;4.70;;
62056;SDS011;48016;50.284;18.860;2022-08-01T13:36:43;5.63;;;5.05;;
62056;SDS011;48016;50.284;18.860;2022-08-01T13:39:10;7.65;;;4.75;;
62056;SDS011;48016;50.284;18.860;2022-08-01T13:41:56;10.73;;;5.40;;
62056;SDS011;48016;50.284;18.860;2022-08-01T13:44:23;6.73;;;5.08;;
62056;SDS011;48016;50.284;18.860;2022-08-01T13:46:50;7.03;;;5.40;;
62056;SDS011;48016;50.284;18.860;2022-08-01T13:49:17;7.43;;;5.68;;
62056;SDS011;48016;50.284;18.860;2022-08-01T13:51:44;6.38;;;5.65;;
62056;SDS011;48016;50.284;18.860;2022-08-01T13:54:12;7.60;;;5.43;;
62056;SDS011;48016;50.284;18.860;2022-08-01T13:56:40;7.15;;;5.83;;
62056;SDS011;48016;50.284;18.860;2022-08-01T13:59:08;6.38;;;5.20;;
62056;SDS011;48016;50.284;18.860;2022-08-01T14:01:35;7.20;;;5.80;;
62056;SDS011;48016;50.284;18.860;2022-08-01T14:04:03;6.25;;;5.65;;
62056;SDS011;48016;50.284;18.860;2022-08-01T14:06:31;6.35;;;5.70;;
62056;SDS011;48016;50.284;18.860;2022-08-01T14:08:59;7.33;;;5.93;;
62056;SDS011;48016;50.284;18.860;2022-08-01T14:11:26;7.50;;;5.88;;
62056;SDS011;48016;50.284;18.860;2022-08-01T14:13:53;7.93;;;5.53;;
62056;SDS011;48016;50.284;18.860;2022-08-01T14:16:20;6.65;;;5.35;;
62056;SDS011;48016;50.284;18.860;2022-08-01T14:18:48;7.70;;;6.18;;
62056;SDS011;48016;50.284;18.860;2022-08-01T14:21:15;7.47;;;5.97;;
62056;SDS011;48016;50.284;18.860;2022-08-01T14:23:42;7.33;;;6.57;;
62056;SDS011;48016;50.284;18.860;2022-08-01T14:26:10;8.23;;;5.70;;
62056;SDS011;48016;50.284;18.860;2022-08-01T14:28:37;9.35;;;6.13;;
62056;SDS011;48016;50.284;18.860;2022-08-01T14:31:05;10.00;;;6.33;;
62056;SDS011;48016;50.284;18.860;2022-08-01T14:33:34;10.73;;;6.20;;
62056;SDS011;48016;50.284;18.860;2022-08-01T14:36:01;6.83;;;5.78;;
62056;SDS011;48016;50.284;18.860;2022-08-01T14:38:29;7.65;;;6.20;;
62056;SDS011;48016;50.284;18.860;2022-08-01T14:40:56;7.20;;;6.37;;
62056;SDS011;48016;50.284;18.860;2022-08-01T14:43:23;8.58;;;6.23;;
62056;SDS011;48016;50.284;18.860;2022-08-01T14:45:50;7.60;;;5.95;;
62056;SDS011;48016;50.284;18.860;2022-08-01T14:48:18;7.00;;;6.30;;
62056;SDS011;48016;50.284;18.860;2022-08-01T14:50:45;6.70;;;5.68;;
62056;SDS011;48016;50.284;18.860;2022-08-01T14:53:12;6.15;;;5.30;;
62056;SDS011;48016;50.284;18.860;2022-08-01T14:55:39;5.88;;;5.28;;
62056;SDS011;48016;50.284;18.860;2022-08-01T14:58:07;7.73;;;5.43;;
62056;SDS011;48016;50.284;18.860;2022-08-01T15:00:34;7.25;;;5.20;;
62056;SDS011;48016;50.284;18.860;2022-08-01T15:03:01;6.80;;;6.10;;
62056;SDS011;48016;50.284;18.860;2022-08-01T15:05:28;8.37;;;5.93;;
62056;SDS011;48016;50.284;18.860;2022-08-01T15:07:56;7.13;;;6.40;;
62056;SDS011;48016;50.284;18.860;2022-08-01T15:10:24;6.38;;;5.38;;
62056;SDS011;48016;50.284;18.860;2022-08-01T15:12:51;6.90;;;6.05;;
62056;SDS011;48016;50.284;18.860;2022-08-01T15:15:18;6.40;;;5.70;;
62056;SDS011;48016;50.284;18.860;2022-08-01T15:17:45;6.85;;;5.78;;
62056;SDS011;48016;50.284;18.860;2022-08-01T15:20:12;7.08;;;5.95;;
62056;SDS011;48016;50.284;18.860;2022-08-01T15:22:39;7.98;;;6.28;;
62056;SDS011;48016;50.284;18.860;2022-08-01T15:25:06;7.50;;;6.00;;
62056;SDS011;48016;50.284;18.860;2022-08-01T15:27:34;10.40;;;6.80;;
62056;SDS011;48016;50.284;18.860;2022-08-01T15:30:01;6.80;;;6.05;;
62056;SDS011;48016;50.284;18.860;2022-08-01T15:32:29;6.80;;;5.78;;
62056;SDS011;48016;50.284;18.860;2022-08-01T15:34:56;6.70;;;5.77;;
62056;SDS011;48016;50.284;18.860;2022-08-01T15:37:24;6.98;;;6.28;;
62056;SDS011;48016;50.284;18.860;2022-08-01T15:39:51;7.57;;;6.13;;
62056;SDS011;48016;50.284;18.860;2022-08-01T15:42:18;7.03;;;6.08;;
62056;SDS011;48016;50.284;18.860;2022-08-01T15:44:45;6.63;;;5.93;;
62056;SDS011;48016;50.284;18.860;2022-08-01T15:47:13;6.68;;;5.95;;
62056;SDS011;48016;50.284;18.860;2022-08-01T15:49:40;6.85;;;5.88;;
62056;SDS011;48016;50.284;18.860;2022-08-01T15:52:07;6.43;;;5.83;;
62056;SDS011;48016;50.284;18.860;2022-08-01T15:54:35;7.05;;;5.73;;
62056;SDS011;48016;50.284;18.860;2022-08-01T15:57:03;7.23;;;6.08;;
62056;SDS011;48016;50.284;18.860;2022-08-01T15:59:30;6.68;;;6.05;;
62056;SDS011;48016;50.284;18.860;2022-08-01T16:01:57;6.85;;;5.75;;
62056;SDS011;48016;50.284;18.860;2022-08-01T16:04:24;6.73;;;6.03;;